Terminal Aerodrome Forecast
Issued by NWS

Home | Current Version | Previous Version | Graphics & Text | Print | Product List | Glossary Off
Versions: 1 2 3 4 5 6 7 8 9 10 11 12 13 14 15 16 17 18 19 20 21

000
FTUS43 KIWX 190539 AAB
TAFSBN
TAF AMD
KSBN 190539Z 1906/2006 22006KT P6SM OVC010
      TEMPO 1909/1913 3SM BR
     FM191500 15006KT P6SM SCT015 BKN150
      TEMPO 1915/1919 BKN010
     FM200200 10006KT 3SM -RA BR OVC015
     FM200500 11006KT 2SM -RA BR OVC008=

USA.gov is the U.S. government's official web portal to all federal, state and local government web resources and services.